Beaver Dam, Arizona
Current Conditions -  °F | °C
As of 5:15 AM on Sunday 23 Nov 2014 (Local Time) from KSGU Reporting Station
Clear Clear  
Wind Chill: 42°   Ceiling: Unl
Heat Index: 48°   Visibility: 10mi
Dew Point: 16°   Wind: 15mph
Humidity: 27%   Direction: 320°NW
Pressure: 30.11"   Gusts: NA
Location:  36.4285°N, 113.628°W
Report Text: KSGU 231215Z AUTO 32013KT 10SM CLR 09/M09 A3011 RMK AO1
Loading
Personal Weather Stations






























Interactive Weather Map New forecast layout! Learn more

10-Day Weather Forecast

Advertisements
Track Severe Weather on mobile